Time;durP1;ratioP1;P1;durP2;ratioP2;P2;SDS_P1;SDS_P2;PMS_P1;PMS_P2;Temp;Humidity;BMP_temperature;BMP_pressure;BME280_temperature;BME280_humidity;BME280_pressure;Samples;Min_cycle;Max_cycle;Signal;HPM_P1;HPM_P2
2024/04/20 00:00:21;;;;;;;5.23;3.40;;;6.70;99.90;;;;;;5275170;27;20476;-58
2024/04/20 00:02:47;;;;;;;5.30;4.33;;;6.70;99.90;;;;;;5275733;27;20229;-59
2024/04/20 00:05:12;;;;;;;8.57;4.07;;;6.60;99.90;;;;;;5275578;27;20267;-59
2024/04/20 00:07:38;;;;;;;7.00;3.47;;;6.60;99.90;;;;;;5275513;27;20307;-57
2024/04/20 00:10:04;;;;;;;6.10;4.87;;;6.60;99.90;;;;;;5275356;27;20236;-57
2024/04/20 00:12:30;;;;;;;6.20;3.67;;;6.50;99.90;;;;;;5276079;27;20232;-58
2024/04/20 00:14:59;;;;;;;5.50;3.83;;;6.50;99.90;;;;;;5275295;27;20464;-56
2024/04/20 00:17:24;;;;;;;3.43;3.03;;;6.50;99.90;;;;;;5275064;27;20524;-58
2024/04/20 00:19:52;;;;;;;4.70;3.80;;;6.40;99.90;;;;;;5275372;27;20460;-59
2024/04/20 00:22:18;;;;;;;4.00;3.20;;;6.40;99.90;;;;;;5275034;27;20236;-56
2024/04/20 00:24:49;;;;;;;4.13;2.87;;;6.40;99.90;;;;;;5275854;27;21088;-57
2024/04/20 00:27:15;;;;;;;5.83;3.40;;;6.30;99.90;;;;;;5275174;27;20279;-57
2024/04/20 00:29:41;;;;;;;3.53;2.10;;;6.30;99.90;;;;;;5275131;27;20456;-56
2024/04/20 00:32:07;;;;;;;4.53;3.03;;;6.20;99.90;;;;;;5275102;27;20224;-58
2024/04/20 00:34:33;;;;;;;3.33;2.90;;;6.20;99.90;;;;;;5275234;27;20236;-58
2024/04/20 00:36:59;;;;;;;2.83;2.57;;;6.20;99.90;;;;;;5275150;27;20515;-60
2024/04/20 00:39:25;;;;;;;3.87;3.20;;;6.20;99.90;;;;;;5275174;27;21116;-60
2024/04/20 00:41:54;;;;;;;4.20;2.90;;;6.30;99.90;;;;;;5275089;27;20710;-60
2024/04/20 00:44:20;;;;;;;3.57;2.77;;;6.30;99.90;;;;;;5274908;27;21014;-55
2024/04/20 00:46:47;;;;;;;2.03;1.83;;;6.20;99.90;;;;;;5275515;27;20463;-57
2024/04/20 00:49:15;;;;;;;3.27;2.60;;;6.20;99.90;;;;;;5274549;27;20267;-56
2024/04/20 00:51:42;;;;;;;3.23;2.73;;;6.10;99.90;;;;;;5275021;27;20455;-56
2024/04/20 00:54:09;;;;;;;2.37;2.23;;;6.20;99.90;;;;;;5274701;27;20524;-57
2024/04/20 00:56:36;;;;;;;5.60;4.00;;;6.20;99.90;;;;;;5273092;27;20600;-59
2024/04/20 00:59:02;;;;;;;2.60;2.40;;;6.20;99.90;;;;;;5274551;27;20468;-57
2024/04/20 01:01:27;;;;;;;2.50;2.30;;;6.20;99.90;;;;;;5275221;27;20464;-59
2024/04/20 01:03:53;;;;;;;5.10;3.23;;;6.20;99.90;;;;;;5274644;27;20576;-59
2024/04/20 01:06:19;;;;;;;2.73;2.53;;;6.10;99.90;;;;;;5274448;27;20232;-59
2024/04/20 01:08:45;;;;;;;2.83;2.53;;;6.10;99.90;;;;;;5274852;27;20225;-58
2024/04/20 01:11:11;;;;;;;3.27;2.70;;;6.10;99.90;;;;;;5274079;27;20598;-58
2024/04/20 01:13:36;;;;;;;2.70;2.50;;;6.10;99.90;;;;;;5274980;27;20480;-54
2024/04/20 01:16:02;;;;;;;3.57;2.70;;;6.10;99.90;;;;;;5274781;27;20522;-59
2024/04/20 01:18:28;;;;;;;3.13;2.83;;;6.10;99.90;;;;;;5274624;27;20229;-59
2024/04/20 01:20:54;;;;;;;2.97;2.77;;;6.00;99.90;;;;;;5274569;27;20342;-59
2024/04/20 01:23:20;;;;;;;5.17;4.63;;;6.00;99.90;;;;;;5276502;27;20236;-57
2024/04/20 01:25:52;;;;;;;4.90;3.60;;;5.90;99.90;;;;;;5277925;27;20506;-59
2024/04/20 01:28:18;;;;;;;4.23;3.57;;;5.90;99.90;;;;;;5277578;27;20236;-59
2024/04/20 01:30:44;;;;;;;5.00;4.23;;;5.90;99.90;;;;;;5277806;27;20820;-58
2024/04/20 01:33:10;;;;;;;3.63;3.33;;;5.90;99.90;;;;;;5277603;27;20463;-59
2024/04/20 01:35:39;;;;;;;4.30;3.47;;;5.90;99.90;;;;;;5277654;27;20455;-59
2024/04/20 01:38:06;;;;;;;3.50;3.20;;;5.90;99.90;;;;;;5277360;27;20889;-57
2024/04/20 01:40:31;;;;;;;4.70;4.03;;;5.90;99.90;;;;;;5274652;27;20990;-59
2024/04/20 01:42:57;;;;;;;3.70;3.30;;;5.90;99.90;;;;;;5277526;27;20512;-58
2024/04/20 01:45:23;;;;;;;3.80;3.40;;;5.90;99.90;;;;;;5277314;27;20970;-59
2024/04/20 01:47:48;;;;;;;3.53;3.23;;;5.90;99.90;;;;;;5277181;27;20270;-59
2024/04/20 01:50:16;;;;;;;4.63;4.13;;;5.90;99.90;;;;;;5277109;27;20221;-59
2024/04/20 01:52:42;;;;;;;3.67;3.30;;;6.00;99.90;;;;;;5277416;27;20402;-59
2024/04/20 01:55:08;;;;;;;6.43;4.00;;;5.90;99.90;;;;;;5277456;27;20516;-58
2024/04/20 01:57:34;;;;;;;3.63;3.33;;;5.90;99.90;;;;;;5276850;27;20459;-58
2024/04/20 01:59:59;;;;;;;6.30;3.93;;;5.90;99.90;;;;;;5277252;27;20271;-58
2024/04/20 02:02:25;;;;;;;4.40;3.90;;;5.90;99.90;;;;;;5276720;27;20524;-59
2024/04/20 02:04:50;;;;;;;4.10;3.80;;;5.90;99.90;;;;;;5277279;27;20268;-58
2024/04/20 02:07:16;;;;;;;3.70;3.37;;;5.90;99.90;;;;;;5275112;27;20805;-58
2024/04/20 02:09:45;;;;;;;4.10;3.70;;;5.90;99.90;;;;;;5277238;27;20226;-58
2024/04/20 02:12:10;;;;;;;4.20;3.70;;;5.90;99.90;;;;;;5277107;27;20224;-58
2024/04/20 02:14:37;;;;;;;4.63;3.10;;;5.90;99.90;;;;;;5277236;27;20599;-59
2024/04/20 02:17:02;;;;;;;3.40;3.10;;;5.90;99.90;;;;;;5276841;27;20229;-59
2024/04/20 02:19:28;;;;;;;3.80;3.30;;;5.90;99.90;;;;;;5276696;27;20944;-59
2024/04/20 02:21:54;;;;;;;3.57;3.27;;;5.90;99.90;;;;;;5277279;27;20602;-58
2024/04/20 02:24:19;;;;;;;2.83;2.60;;;5.90;99.90;;;;;;5276958;27;20284;-59
2024/04/20 02:26:45;;;;;;;2.57;2.37;;;5.80;99.90;;;;;;5277075;27;20269;-58
2024/04/20 02:29:10;;;;;;;2.33;2.23;;;5.70;99.90;;;;;;5276823;27;20228;-57
2024/04/20 02:31:36;;;;;;;2.30;2.10;;;5.80;99.90;;;;;;5260869;27;20786;-57
2024/04/20 02:34:01;;;;;;;2.93;2.20;;;5.70;99.90;;;;;;5276670;27;20846;-59
2024/04/20 02:36:27;;;;;;;2.17;1.80;;;5.70;99.90;;;;;;5276586;27;20645;-59
2024/04/20 02:38:54;;;;;;;1.73;1.63;;;5.60;99.90;;;;;;5276856;27;20354;-57
2024/04/20 02:41:20;;;;;;;1.70;1.60;;;5.60;99.90;;;;;;5276780;27;20535;-56
2024/04/20 02:43:45;;;;;;;1.97;1.47;;;5.50;99.90;;;;;;5276748;27;20523;-59
2024/04/20 02:46:11;;;;;;;2.00;1.20;;;5.50;99.90;;;;;;5276547;27;20232;-58
2024/04/20 02:48:37;;;;;;;2.20;1.90;;;5.40;99.90;;;;;;5276659;27;20331;-59
2024/04/20 02:51:04;;;;;;;1.60;1.50;;;5.40;99.90;;;;;;5276861;27;20232;-59
2024/04/20 02:53:30;;;;;;;1.27;1.10;;;5.40;99.90;;;;;;5276841;27;20580;-56
2024/04/20 02:55:55;;;;;;;1.13;1.03;;;5.40;99.90;;;;;;5276591;27;20561;-59
2024/04/20 02:58:21;;;;;;;1.30;1.20;;;5.30;99.90;;;;;;5276278;27;20655;-59
2024/04/20 03:01:00;;;;;;;0.90;0.90;;;5.30;99.90;;;;;;5291595;21;20754;-55
2024/04/20 03:03:26;;;;;;;2.20;1.27;;;5.20;99.90;;;;;;5273871;27;20252;-53
2024/04/20 03:05:52;;;;;;;1.43;1.20;;;5.20;99.90;;;;;;5274171;27;20468;-54
2024/04/20 03:08:18;;;;;;;2.20;1.00;;;5.20;99.90;;;;;;5274339;27;20519;-52
2024/04/20 03:10:45;;;;;;;1.50;1.40;;;5.10;99.90;;;;;;5274161;27;20528;-55
2024/04/20 03:13:11;;;;;;;1.50;1.40;;;5.10;99.90;;;;;;5273905;27;20228;-58
2024/04/20 03:15:37;;;;;;;1.50;1.30;;;5.00;99.90;;;;;;5273798;27;20464;-59
2024/04/20 03:18:03;;;;;;;1.57;1.40;;;5.00;99.90;;;;;;5274444;27;20460;-53
2024/04/20 03:20:29;;;;;;;1.17;1.07;;;5.00;99.90;;;;;;5274191;27;20244;-57
2024/04/20 03:22:54;;;;;;;2.53;1.37;;;4.90;99.90;;;;;;5273984;27;20459;-54
2024/04/20 03:25:20;;;;;;;1.10;1.00;;;5.00;99.90;;;;;;5273851;27;20276;-50
2024/04/20 03:27:46;;;;;;;1.20;1.10;;;4.90;99.90;;;;;;5273576;27;20270;-57
2024/04/20 03:30:12;;;;;;;1.43;1.30;;;4.80;99.90;;;;;;5273340;27;20303;-53
2024/04/20 03:32:37;;;;;;;1.40;1.30;;;4.80;99.90;;;;;;5273371;27;20715;-54
2024/04/20 03:35:04;;;;;;;1.10;1.00;;;4.80;99.90;;;;;;5273650;27;20271;-53
2024/04/20 03:37:30;;;;;;;1.10;1.00;;;4.80;99.90;;;;;;5273215;27;20611;-49
2024/04/20 03:39:55;;;;;;;1.53;1.43;;;4.70;99.90;;;;;;5273516;27;20493;-51
2024/04/20 03:42:21;;;;;;;1.30;1.20;;;4.80;99.90;;;;;;5273534;27;20667;-51
2024/04/20 03:44:46;;;;;;;2.83;1.17;;;4.80;99.90;;;;;;5272962;27;20225;-52
2024/04/20 03:47:12;;;;;;;1.40;1.30;;;4.80;99.90;;;;;;5273320;27;20233;-49
2024/04/20 03:49:37;;;;;;;1.27;1.17;;;4.80;99.90;;;;;;5273181;27;20279;-57
2024/04/20 03:52:03;;;;;;;1.30;1.20;;;4.80;99.90;;;;;;5273350;27;20224;-53
2024/04/20 03:54:29;;;;;;;1.30;1.20;;;4.80;99.90;;;;;;5273800;27;20244;-51
2024/04/20 03:56:54;;;;;;;2.20;1.10;;;4.80;99.90;;;;;;5273522;27;20228;-52
2024/04/20 03:59:20;;;;;;;1.50;1.40;;;4.70;99.90;;;;;;5273038;27;20228;-54
2024/04/20 04:01:45;;;;;;;1.83;1.00;;;4.70;99.90;;;;;;5229924;27;1002462;-58
2024/04/20 04:04:11;;;;;;;1.07;0.90;;;4.70;99.90;;;;;;5266526;27;20321;-51
2024/04/20 04:06:37;;;;;;;1.20;1.10;;;4.70;99.90;;;;;;5273059;27;20327;-55
2024/04/20 04:09:02;;;;;;;1.10;0.90;;;4.70;99.90;;;;;;5273215;27;20663;-54
2024/04/20 04:11:28;;;;;;;1.37;1.23;;;4.70;99.90;;;;;;5272907;27;20233;-50
2024/04/20 04:13:54;;;;;;;1.43;0.97;;;4.60;99.90;;;;;;5273323;27;20233;-56
2024/04/20 04:16:19;;;;;;;1.30;1.20;;;4.60;99.90;;;;;;5273090;27;20279;-56
2024/04/20 04:18:45;;;;;;;1.37;1.27;;;4.60;99.90;;;;;;5273200;27;20275;-49
2024/04/20 04:21:11;;;;;;;4.80;1.83;;;4.60;99.90;;;;;;5273267;27;20236;-48
2024/04/20 04:23:37;;;;;;;1.60;1.07;;;4.60;99.90;;;;;;5272923;27;21260;-50
2024/04/20 04:26:03;;;;;;;0.90;0.90;;;4.50;99.90;;;;;;5272848;27;20233;-53
2024/04/20 04:28:30;;;;;;;1.03;1.00;;;4.60;99.90;;;;;;5272610;27;20511;-50
2024/04/20 04:30:55;;;;;;;0.97;0.93;;;4.50;99.90;;;;;;5272480;27;20529;-49
2024/04/20 04:33:21;;;;;;;1.30;1.00;;;4.50;99.90;;;;;;5272550;27;20918;-50
2024/04/20 04:35:47;;;;;;;1.37;1.27;;;4.50;99.90;;;;;;5272906;27;20352;-53
2024/04/20 04:38:12;;;;;;;3.90;1.20;;;4.50;99.90;;;;;;5272757;27;20229;-56
2024/04/20 04:40:38;;;;;;;1.97;1.23;;;4.50;99.90;;;;;;5272214;27;20283;-51
2024/04/20 04:43:04;;;;;;;2.00;1.33;;;4.50;99.90;;;;;;5272502;27;20233;-52
2024/04/20 04:45:30;;;;;;;1.60;1.23;;;4.50;99.90;;;;;;5272441;27;20382;-53
2024/04/20 04:47:55;;;;;;;1.50;1.40;;;4.50;99.90;;;;;;5272544;27;20489;-56
2024/04/20 04:50:21;;;;;;;1.70;1.23;;;4.40;99.90;;;;;;5272033;27;20993;-52
2024/04/20 04:52:47;;;;;;;1.43;1.27;;;4.40;99.90;;;;;;5272482;27;20236;-56
2024/04/20 04:55:12;;;;;;;1.93;1.40;;;4.40;99.90;;;;;;5272410;27;20645;-54
2024/04/20 04:57:38;;;;;;;1.50;1.30;;;4.40;99.90;;;;;;5272234;27;20271;-54
2024/04/20 05:00:05;;;;;;;1.60;1.50;;;4.40;99.90;;;;;;5272305;27;20496;-51
2024/04/20 05:02:30;;;;;;;1.70;1.60;;;4.40;99.90;;;;;;5272232;27;20270;-50
2024/04/20 05:04:56;;;;;;;1.50;1.40;;;4.40;99.90;;;;;;5272485;27;20475;-49
2024/04/20 05:07:21;;;;;;;1.27;1.17;;;4.40;99.90;;;;;;5272471;27;20244;-53
2024/04/20 05:09:47;;;;;;;2.10;1.90;;;4.40;99.90;;;;;;5272320;27;20606;-53
2024/04/20 05:12:13;;;;;;;1.23;1.13;;;4.40;99.90;;;;;;5272149;27;20248;-57
2024/04/20 05:14:38;;;;;;;1.27;1.17;;;4.40;99.90;;;;;;5272128;27;20232;-56
2024/04/20 05:17:04;;;;;;;1.30;1.03;;;4.40;99.90;;;;;;5272607;27;20417;-49
2024/04/20 05:19:30;;;;;;;1.40;1.30;;;4.40;99.90;;;;;;5272145;27;20704;-56
2024/04/20 05:21:55;;;;;;;2.40;1.70;;;4.40;99.90;;;;;;5272192;27;20603;-56
2024/04/20 05:24:24;;;;;;;1.57;1.13;;;4.40;99.90;;;;;;5271787;27;20608;-60
2024/04/20 05:26:50;;;;;;;3.63;2.90;;;4.50;99.90;;;;;;5271728;27;20387;-56
2024/04/20 05:29:16;;;;;;;1.50;1.30;;;4.40;99.90;;;;;;5272214;27;20491;-49
2024/04/20 05:31:42;;;;;;;1.60;1.50;;;4.40;99.90;;;;;;5272062;27;20575;-50
2024/04/20 05:34:07;;;;;;;2.43;1.47;;;4.50;99.90;;;;;;5282333;27;20233;-57
2024/04/20 05:36:33;;;;;;;2.13;1.27;;;4.50;99.90;;;;;;5281311;27;20236;-53
2024/04/20 05:38:59;;;;;;;1.33;1.23;;;4.60;99.90;;;;;;5271981;27;20270;-58
2024/04/20 05:41:24;;;;;;;1.50;1.40;;;4.60;99.90;;;;;;5271951;27;20468;-54
2024/04/20 05:43:50;;;;;;;1.70;1.40;;;4.70;99.90;;;;;;5272115;27;20229;-56
2024/04/20 05:46:15;;;;;;;1.90;1.67;;;4.60;99.90;;;;;;5272164;27;20237;-57
2024/04/20 05:48:41;;;;;;;2.20;1.93;;;4.60;99.90;;;;;;5271860;27;20225;-50
2024/04/20 05:51:07;;;;;;;1.60;1.50;;;4.70;99.90;;;;;;5271779;27;20232;-55
2024/04/20 05:53:32;;;;;;;1.50;1.40;;;4.60;99.90;;;;;;5271410;27;20369;-54
2024/04/20 05:55:58;;;;;;;4.70;1.90;;;4.60;99.90;;;;;;5271555;27;20236;-57
2024/04/20 05:58:23;;;;;;;2.10;1.73;;;4.70;99.90;;;;;;5271326;27;20643;-58
2024/04/20 06:00:49;;;;;;;2.30;1.60;;;4.60;99.90;;;;;;5271374;27;20722;-55
2024/04/20 06:03:15;;;;;;;1.47;1.33;;;4.60;99.90;;;;;;5241856;27;20252;-53
2024/04/20 06:05:42;;;;;;;3.17;1.97;;;4.60;99.90;;;;;;5271338;27;20287;-52
2024/04/20 06:08:08;;;;;;;2.10;1.63;;;4.60;99.90;;;;;;5271725;27;20232;-56
2024/04/20 06:10:33;;;;;;;2.03;1.60;;;4.50;99.90;;;;;;5274852;27;20471;-55
2024/04/20 06:12:59;;;;;;;3.60;1.60;;;4.60;99.90;;;;;;5275069;27;20229;-57
2024/04/20 06:15:25;;;;;;;1.87;1.70;;;4.60;99.90;;;;;;5274657;27;20233;-58
2024/04/20 06:17:50;;;;;;;1.73;1.63;;;4.60;99.90;;;;;;5275525;27;20263;-54
2024/04/20 06:20:17;;;;;;;1.93;1.60;;;4.80;99.90;;;;;;5275006;27;20627;-56
2024/04/20 06:22:42;;;;;;;2.40;2.20;;;4.80;99.90;;;;;;5274450;27;20339;-51
2024/04/20 06:25:11;;;;;;;2.47;2.00;;;4.80;99.90;;;;;;5274591;27;20517;-59
2024/04/20 06:27:37;;;;;;;2.60;1.70;;;4.90;99.90;;;;;;5274438;27;20256;-55
2024/04/20 06:30:03;;;;;;;1.80;1.70;;;5.00;99.90;;;;;;5274748;27;20543;-54
2024/04/20 06:32:30;;;;;;;1.80;1.60;;;5.20;99.90;;;;;;5274720;27;20620;-56
2024/04/20 06:34:55;;;;;;;2.53;1.87;;;5.10;99.90;;;;;;5274643;27;20954;-56
2024/04/20 06:37:21;;;;;;;1.87;1.67;;;5.20;99.90;;;;;;5274855;27;20510;-54
2024/04/20 06:39:47;;;;;;;2.33;2.00;;;5.20;99.90;;;;;;5275037;27;20334;-59
2024/04/20 06:42:13;;;;;;;3.60;1.80;;;5.50;99.90;;;;;;5274504;27;20734;-55
2024/04/20 06:44:39;;;;;;;1.57;1.47;;;5.60;99.90;;;;;;5274442;27;20463;-56
2024/04/20 06:47:04;;;;;;;3.00;2.43;;;5.90;99.90;;;;;;5274591;27;20295;-53
2024/04/20 06:49:30;;;;;;;1.73;1.63;;;6.10;99.90;;;;;;5274444;27;20723;-55
2024/04/20 06:51:56;;;;;;;3.87;1.40;;;5.90;99.90;;;;;;5274068;27;20529;-55
2024/04/20 06:54:21;;;;;;;1.87;1.53;;;6.00;99.90;;;;;;5274666;27;20279;-52
2024/04/20 06:56:47;;;;;;;3.90;1.60;;;5.90;99.90;;;;;;5274111;27;20719;-56
2024/04/20 06:59:12;;;;;;;1.63;1.53;;;5.90;99.90;;;;;;5274472;27;20376;-49
2024/04/20 07:01:38;;;;;;;1.43;1.33;;;5.90;99.90;;;;;;5274097;27;20245;-53
2024/04/20 07:04:04;;;;;;;2.17;1.50;;;6.10;99.90;;;;;;5274612;27;20540;-50
2024/04/20 07:06:29;;;;;;;2.40;1.77;;;5.90;99.90;;;;;;5274109;27;20244;-52
2024/04/20 07:08:55;;;;;;;2.40;1.30;;;6.00;99.90;;;;;;5274271;27;20280;-54
2024/04/20 07:11:20;;;;;;;2.03;1.83;;;5.90;99.90;;;;;;5274076;27;20233;-55
2024/04/20 07:13:46;;;;;;;2.17;1.50;;;6.40;99.90;;;;;;5274163;27;20973;-55
2024/04/20 07:16:12;;;;;;;2.00;1.47;;;7.00;99.90;;;;;;5274131;27;20613;-57
2024/04/20 07:18:38;;;;;;;1.27;1.17;;;7.60;99.90;;;;;;5273867;27;20452;-59
2024/04/20 07:21:04;;;;;;;3.00;1.97;;;8.10;99.90;;;;;;5272451;27;20315;-57
2024/04/20 07:23:30;;;;;;;6.63;1.30;;;8.70;99.90;;;;;;5273773;27;20281;-54
2024/04/20 07:26:06;;;;;;;2.17;1.10;;;9.20;99.90;;;;;;5274335;27;20528;-56
2024/04/20 07:28:32;;;;;;;1.57;1.40;;;9.40;99.90;;;;;;5274052;27;21073;-56
2024/04/20 07:30:58;;;;;;;1.57;1.47;;;9.70;99.90;;;;;;5273952;27;20464;-55
2024/04/20 07:33:23;;;;;;;1.20;1.10;;;9.50;99.90;;;;;;5273849;27;20470;-56
2024/04/20 07:35:49;;;;;;;1.97;1.50;;;10.20;99.90;;;;;;5273752;27;20225;-56
2024/04/20 07:38:15;;;;;;;1.50;1.23;;;10.00;99.90;;;;;;5274206;27;20234;-51
2024/04/20 07:40:42;;;;;;;2.20;1.40;;;10.00;99.90;;;;;;5273616;27;20301;-53
2024/04/20 07:43:08;;;;;;;1.27;1.17;;;8.90;99.90;;;;;;5273717;27;20237;-57
2024/04/20 07:45:33;;;;;;;2.07;1.43;;;8.00;99.90;;;;;;5276002;27;20520;-59
2024/04/20 07:48:00;;;;;;;1.30;1.20;;;8.00;99.90;;;;;;5279702;27;20264;-58
2024/04/20 07:50:25;;;;;;;3.50;1.70;;;7.90;99.90;;;;;;5274196;27;20727;-56
2024/04/20 07:52:51;;;;;;;2.30;1.73;;;7.50;99.90;;;;;;5273545;27;20650;-57
2024/04/20 07:55:18;;;;;;;3.00;1.80;;;7.50;99.90;;;;;;5243986;27;20235;-54
2024/04/20 07:57:44;;;;;;;2.43;1.60;;;7.50;99.90;;;;;;5273457;27;20285;-50
2024/04/20 08:00:11;;;;;;;3.63;1.30;;;7.20;99.90;;;;;;5273688;27;21139;-51
2024/04/20 08:02:37;;;;;;;1.77;1.67;;;6.90;99.90;;;;;;5273721;27;20528;-54
2024/04/20 08:05:03;;;;;;;2.03;1.30;;;6.80;99.90;;;;;;5273858;27;20588;-53
2024/04/20 08:07:28;;;;;;;6.20;1.30;;;6.70;99.90;;;;;;5273347;27;20465;-56
2024/04/20 08:09:54;;;;;;;2.53;1.50;;;6.70;99.90;;;;;;5273463;27;20270;-56
2024/04/20 08:12:19;;;;;;;2.00;1.80;;;6.50;99.90;;;;;;5273587;27;20283;-56
2024/04/20 08:14:45;;;;;;;1.97;1.80;;;6.60;99.90;;;;;;5273603;27;20275;-57
2024/04/20 08:17:12;;;;;;;2.07;1.70;;;6.70;99.90;;;;;;5273193;27;20229;-57
2024/04/20 08:19:38;;;;;;;1.93;1.37;;;6.90;99.90;;;;;;5272911;27;20283;-56
2024/04/20 08:22:04;;;;;;;1.93;1.63;;;7.10;99.90;;;;;;5273343;27;20482;-57
2024/04/20 08:24:32;;;;;;;2.20;1.77;;;7.00;99.90;;;;;;5273435;27;20856;-57
2024/04/20 08:26:58;;;;;;;1.60;1.40;;;6.90;99.90;;;;;;5259798;27;21043;-53
2024/04/20 08:29:24;;;;;;;2.70;1.57;;;7.10;99.90;;;;;;5273201;27;20464;-54
2024/04/20 08:31:50;;;;;;;1.50;1.40;;;7.20;99.90;;;;;;5272306;27;20596;-55
2024/04/20 08:34:16;;;;;;;1.67;1.57;;;7.60;99.90;;;;;;5273753;27;20861;-54
2024/04/20 08:36:41;;;;;;;1.90;1.50;;;8.30;99.90;;;;;;5272741;27;20236;-57
2024/04/20 08:39:07;;;;;;;4.10;1.47;;;9.00;99.90;;;;;;5272769;27;20626;-58
2024/04/20 08:41:33;;;;;;;1.77;1.40;;;9.20;99.90;;;;;;5273021;27;20337;-54
2024/04/20 08:44:03;;;;;;;1.20;1.10;;;8.90;99.90;;;;;;5272983;27;20331;-54
2024/04/20 08:46:29;;;;;;;2.47;1.37;;;9.40;99.90;;;;;;5272860;27;20228;-57
2024/04/20 08:48:59;;;;;;;1.80;1.53;;;8.80;99.90;;;;;;5272490;27;21073;-54
2024/04/20 08:51:25;;;;;;;2.03;1.60;;;8.40;99.90;;;;;;5272867;27;20546;-56
2024/04/20 08:53:52;;;;;;;2.13;1.53;;;8.50;99.90;;;;;;5272325;27;20545;-55
2024/04/20 08:56:19;;;;;;;3.13;1.47;;;8.30;99.90;;;;;;5272713;27;20628;-57
2024/04/20 08:58:44;;;;;;;1.37;1.27;;;8.20;99.90;;;;;;5272390;27;20513;-53
2024/04/20 09:01:16;;;;;;;1.43;1.33;;;8.00;99.90;;;;;;5272674;27;20471;-54
2024/04/20 09:03:42;;;;;;;2.10;1.43;;;8.10;99.90;;;;;;5272573;27;20252;-56
2024/04/20 09:06:11;;;;;;;1.93;1.40;;;7.50;99.90;;;;;;5272759;27;20798;-54
2024/04/20 09:08:39;;;;;;;4.53;1.27;;;7.50;99.90;;;;;;5272625;27;20525;-57
2024/04/20 09:11:05;;;;;;;4.60;1.90;;;7.40;99.90;;;;;;5272322;27;20464;-54
2024/04/20 09:13:31;;;;;;;3.20;1.73;;;7.40;99.90;;;;;;5272434;27;20455;-53
2024/04/20 09:15:58;;;;;;;4.17;1.67;;;7.30;99.90;;;;;;5272309;27;20357;-56
2024/04/20 09:18:23;;;;;;;1.40;1.30;;;7.30;99.90;;;;;;5272429;27;20643;-56
2024/04/20 09:20:52;;;;;;;2.87;1.50;;;7.30;99.90;;;;;;5272241;27;20460;-55
2024/04/20 09:23:24;;;;;;;2.53;1.33;;;7.40;99.90;;;;;;5272494;27;20823;-56
2024/04/20 09:25:51;;;;;;;2.30;1.60;;;7.30;99.90;;;;;;5272340;27;20642;-56
2024/04/20 09:28:17;;;;;;;1.50;1.40;;;7.60;99.90;;;;;;5272473;27;20458;-58
2024/04/20 09:30:43;;;;;;;2.40;2.03;;;7.80;99.90;;;;;;5258266;27;21007;-59
2024/04/20 09:33:14;;;;;;;1.43;1.33;;;8.00;99.90;;;;;;5272359;27;20242;-54
2024/04/20 09:35:42;;;;;;;2.30;1.47;;;8.40;99.90;;;;;;5271817;27;20468;-58
2024/04/20 09:38:07;;;;;;;1.77;1.40;;;8.60;99.90;;;;;;5272306;27;20576;-58
2024/04/20 09:40:33;;;;;;;2.10;1.50;;;8.70;99.90;;;;;;5271961;27;20516;-58
2024/04/20 09:43:01;;;;;;;1.50;1.40;;;8.60;99.90;;;;;;5271539;27;20232;-53
2024/04/20 09:45:28;;;;;;;1.83;1.37;;;8.50;99.90;;;;;;5275732;27;20233;-58
2024/04/20 09:47:56;;;;;;;2.00;1.80;;;8.30;99.90;;;;;;5275522;27;21070;-55
2024/04/20 09:50:26;;;;;;;1.60;1.50;;;8.70;99.90;;;;;;5275183;27;20865;-54
2024/04/20 09:52:56;;;;;;;3.13;2.23;;;8.70;99.90;;;;;;5274926;27;20487;-59
2024/04/20 09:55:33;;;;;;;2.03;1.40;;;8.80;99.90;;;;;;5275312;27;20467;-60
2024/04/20 09:58:03;;;;;;;2.57;1.60;;;8.80;99.90;;;;;;5275164;27;20471;-55
2024/04/20 10:00:34;;;;;;;2.13;1.57;;;8.70;99.90;;;;;;5274972;27;20619;-57
2024/04/20 10:03:00;;;;;;;2.57;1.60;;;9.10;99.90;;;;;;5274989;27;20873;-51
2024/04/20 10:05:26;;;;;;;2.33;1.40;;;9.30;99.90;;;;;;5275671;27;20470;-52
2024/04/20 10:07:52;;;;;;;2.60;1.60;;;9.70;99.90;;;;;;5274860;27;20263;-55
2024/04/20 10:10:20;;;;;;;1.43;1.33;;;9.20;99.90;;;;;;5274987;27;20480;-58
2024/04/20 10:12:47;;;;;;;2.70;1.73;;;8.70;99.90;;;;;;5274792;27;20302;-55
2024/04/20 10:15:13;;;;;;;2.10;1.30;;;9.20;99.90;;;;;;5261074;27;20464;-55
2024/04/20 10:17:39;;;;;;;3.53;1.50;;;9.10;99.90;;;;;;5274768;27;20527;-56
2024/04/20 10:20:06;;;;;;;1.87;1.60;;;9.10;99.90;;;;;;5274299;27;20467;-60
2024/04/20 10:22:38;;;;;;;1.47;1.37;;;9.30;99.90;;;;;;5274670;27;20578;-55
2024/04/20 10:25:10;;;;;;;2.33;1.67;;;9.10;99.90;;;;;;5274828;27;20516;-55
2024/04/20 10:27:38;;;;;;;2.93;1.40;;;9.50;99.90;;;;;;5274727;27;20797;-54
2024/04/20 10:30:21;;;;;;;1.40;1.30;;;9.80;99.90;;;;;;5274478;27;20468;-52
2024/04/20 10:32:51;;;;;;;1.47;1.37;;;10.10;99.50;;;;;;5274362;27;20516;-56
2024/04/20 10:35:20;;;;;;;1.30;1.20;;;10.10;97.70;;;;;;5274579;27;20944;-57
2024/04/20 10:38:08;;;;;;;2.20;1.20;;;9.20;99.90;;;;;;5274329;27;20599;-55
2024/04/20 10:40:35;;;;;;;2.20;1.30;;;8.10;99.90;;;;;;5274416;27;20468;-52
2024/04/20 10:43:10;;;;;;;1.70;1.60;;;7.40;99.90;;;;;;5274252;27;20468;-53
2024/04/20 10:45:36;;;;;;;1.90;1.47;;;6.90;99.90;;;;;;5274392;27;20469;-56
2024/04/20 10:48:03;;;;;;;1.57;1.47;;;6.70;99.90;;;;;;5273907;27;20519;-58
2024/04/20 10:50:28;;;;;;;2.20;2.00;;;6.30;99.90;;;;;;5274216;27;20237;-53
2024/04/20 10:53:18;;;;;;;2.20;2.00;;;6.40;99.90;;;;;;5274552;27;20521;-50
2024/04/20 10:55:44;;;;;;;2.77;2.03;;;6.20;99.90;;;;;;5268985;27;20289;-50
2024/04/20 10:58:10;;;;;;;2.37;1.80;;;6.10;99.90;;;;;;5274104;27;20527;-55
2024/04/20 11:00:36;;;;;;;3.47;2.20;;;6.20;99.90;;;;;;5273749;27;20622;-56
2024/04/20 11:03:03;;;;;;;2.50;2.00;;;6.30;99.90;;;;;;5274133;27;20605;-52
2024/04/20 11:05:28;;;;;;;2.90;2.27;;;6.60;99.90;;;;;;5274235;27;20529;-54
2024/04/20 11:08:01;;;;;;;2.13;1.93;;;6.60;99.90;;;;;;5274017;27;20456;-54
2024/04/20 11:10:30;;;;;;;4.23;2.57;;;6.80;99.90;;;;;;5273919;27;20229;-56
2024/04/20 11:13:01;;;;;;;4.10;2.50;;;6.90;99.90;;;;;;5273995;27;20463;-57
2024/04/20 11:15:27;;;;;;;2.33;2.13;;;7.00;99.90;;;;;;5274227;27;20460;-54
2024/04/20 11:17:54;;;;;;;2.43;2.23;;;7.00;99.90;;;;;;5244416;27;20533;-56
2024/04/20 11:20:20;;;;;;;2.50;2.30;;;7.10;99.90;;;;;;5273961;27;20468;-57
2024/04/20 11:22:46;;;;;;;2.30;2.10;;;7.20;99.90;;;;;;5273665;27;20504;-60
2024/04/20 11:25:12;;;;;;;3.00;2.30;;;7.10;99.90;;;;;;5274150;27;20530;-56
2024/04/20 11:27:38;;;;;;;2.37;1.80;;;7.50;99.90;;;;;;5273678;27;20319;-52
2024/04/20 11:30:04;;;;;;;2.60;1.77;;;7.60;99.90;;;;;;5273334;27;20478;-50
2024/04/20 11:32:30;;;;;;;2.80;2.33;;;7.50;99.90;;;;;;5273847;27;20518;-57
2024/04/20 11:34:55;;;;;;;1.73;1.57;;;7.30;99.90;;;;;;5273356;27;20528;-52
2024/04/20 11:37:21;;;;;;;2.40;1.73;;;7.30;99.90;;;;;;5273446;27;20318;-57
2024/04/20 11:39:47;;;;;;;2.30;1.80;;;7.30;99.90;;;;;;5273082;27;20232;-56
2024/04/20 11:42:16;;;;;;;2.20;2.10;;;7.70;99.90;;;;;;5273485;27;20281;-54
2024/04/20 11:44:43;;;;;;;1.97;1.77;;;8.10;99.90;;;;;;5273922;27;20512;-59
2024/04/20 11:47:16;;;;;;;1.50;1.40;;;8.40;99.90;;;;;;5259913;27;20473;-57
2024/04/20 11:49:52;;;;;;;1.70;1.60;;;8.70;99.90;;;;;;5273521;27;20878;-61
2024/04/20 11:55:12;;;;;;;1.87;1.67;;;9.20;99.90;;;;;;5273922;27;20896;-54
2024/04/20 11:57:39;;;;;;;1.50;1.40;;;9.10;99.90;;;;;;5273339;27;20877;-55
2024/04/20 12:00:08;;;;;;;6.50;2.13;;;9.60;99.90;;;;;;5272810;27;20621;-57
2024/04/20 12:02:34;;;;;;;1.60;1.47;;;9.70;99.90;;;;;;5273308;27;20536;-52
2024/04/20 12:05:00;;;;;;;1.70;1.23;;;10.20;99.90;;;;;;5273365;27;20649;-54
2024/04/20 12:07:29;;;;;;;1.90;1.67;;;10.20;96.50;;;;;;5272405;27;20510;-57
2024/04/20 12:09:54;;;;;;;1.67;1.53;;;9.90;96.80;;;;;;5272924;27;20296;-53
2024/04/20 12:12:20;;;;;;;1.63;1.37;;;9.30;99.90;;;;;;5273426;27;20536;-55
2024/04/20 12:14:46;;;;;;;2.30;1.77;;;9.00;99.90;;;;;;5280720;27;20240;-59
2024/04/20 12:17:12;;;;;;;3.53;1.60;;;8.90;99.90;;;;;;5281505;27;20271;-53
2024/04/20 12:19:38;;;;;;;1.80;1.70;;;8.90;99.90;;;;;;5273123;27;20539;-56
2024/04/20 12:22:03;;;;;;;1.67;1.57;;;8.90;99.90;;;;;;5273013;27;20251;-59
2024/04/20 12:24:30;;;;;;;1.70;1.50;;;9.00;99.90;;;;;;5273319;27;20229;-59
2024/04/20 12:26:56;;;;;;;2.23;1.60;;;9.30;99.90;;;;;;5273095;27;20236;-57
2024/04/20 12:29:22;;;;;;;1.90;1.80;;;9.60;99.10;;;;;;5272718;27;20553;-55
2024/04/20 12:31:47;;;;;;;2.70;1.53;;;9.60;99.10;;;;;;5272956;27;20244;-52
2024/04/20 12:34:13;;;;;;;1.47;1.30;;;9.30;98.30;;;;;;5273009;27;20232;-56
2024/04/20 12:36:39;;;;;;;1.17;1.07;;;9.20;95.90;;;;;;5273059;27;20225;-54
2024/04/20 12:39:06;;;;;;;1.33;1.23;;;9.20;94.00;;;;;;5272589;27;20251;-54
2024/04/20 12:41:32;;;;;;;1.20;1.10;;;9.10;90.70;;;;;;5272743;27;20470;-59
2024/04/20 12:43:58;;;;;;;1.70;1.20;;;9.20;90.60;;;;;;5272526;27;20566;-54
2024/04/20 12:46:24;;;;;;;1.17;1.07;;;9.30;85.70;;;;;;5272902;27;20582;-54
2024/04/20 12:48:50;;;;;;;2.90;1.03;;;9.20;84.40;;;;;;5272992;27;20522;-52
2024/04/20 12:51:17;;;;;;;1.07;1.00;;;9.10;83.40;;;;;;5273002;27;20261;-54
2024/04/20 12:53:43;;;;;;;1.20;1.03;;;9.00;83.60;;;;;;5272908;27;20275;-53
2024/04/20 12:56:09;;;;;;;3.47;1.50;;;9.20;81.20;;;;;;5272310;27;20475;-51